Time;durP1;ratioP1;P1;durP2;ratioP2;P2;SDS_P1;SDS_P2;PMS_P1;PMS_P2;Temp;Humidity;BMP_temperature;BMP_pressure;BME280_temperature;BME280_humidity;BME280_pressure;Samples;Min_cycle;Max_cycle;Signal;HPM_P1;HPM_P2
2022/07/11 00:02:12;;;;;;;1.10;1.00;;;;;;;20.40;60.43;97541.16;6064008;23;20184;-92
2022/07/11 00:04:39;;;;;;;1.00;1.00;;;;;;;21.75;60.56;97797.91;6087257;23;20181;-91
2022/07/11 00:07:07;;;;;;;1.10;1.00;;;;;;;20.36;59.95;97608.22;6088071;23;20206;-93
2022/07/11 00:09:33;;;;;;;1.93;1.10;;;;;;;22.07;60.30;97827.97;6065355;23;20157;-90
2022/07/11 00:12:00;;;;;;;1.23;1.10;;;;;;;20.47;60.53;97559.28;6064018;23;20220;-92
2022/07/11 00:14:28;;;;;;;1.07;1.00;;;;;;;19.09;60.70;97333.34;6087714;23;20169;-92
2022/07/11 00:16:55;;;;;;;1.07;1.00;;;;;;;20.58;60.79;97605.63;6087418;23;20248;-92
2022/07/11 00:19:28;;;;;;;1.03;1.03;;;;;;;20.97;60.62;97671.72;6064578;23;20205;-93
2022/07/11 00:21:55;;;;;;;1.30;1.20;;;;;;;20.79;60.59;97655.75;6062225;23;20204;-90
2022/07/11 00:24:24;;;;;;;1.17;1.07;;;;;;;17.97;60.76;97145.09;6062404;23;20177;-92
2022/07/11 00:26:51;;;;;;;1.87;1.07;;;;;;;18.04;60.45;97139.44;6039645;23;20242;-88
2022/07/11 00:29:18;;;;;;;1.73;1.20;;;;;;;19.20;60.67;97352.44;6064232;23;20153;-90
2022/07/11 00:31:45;;;;;;;1.00;1.00;;;;;;;19.79;60.74;97453.97;6063899;23;20200;-92
2022/07/11 00:34:11;;;;;;;2.30;1.17;;;;;;;19.76;61.02;97446.19;6064332;23;20233;-92
2022/07/11 00:36:38;;;;;;;1.20;1.10;;;;;;;22.18;60.87;97862.47;6087781;23;20145;-91
2022/07/11 00:39:05;;;;;;;1.10;1.00;;;;;;;23.10;60.81;98009.78;6064507;23;20209;-92
2022/07/11 00:41:35;;;;;;;2.70;1.10;;;;;;;18.51;60.52;97221.72;6040655;23;20212;-90
2022/07/11 00:44:02;;;;;;;1.00;1.00;;;;;;;23.41;60.80;98057.81;6063951;23;20205;-94
2022/07/11 00:46:29;;;;;;;1.10;1.00;;;;;;;22.31;61.02;97893.66;6087843;23;20224;-91
2022/07/11 00:48:57;;;;;;;0.93;0.93;;;;;;;20.26;59.81;97545.81;6064348;23;20160;-92
2022/07/11 00:51:24;;;;;;;0.90;0.90;;;;;;;20.39;60.64;97591.34;6088863;23;20177;-93
2022/07/11 00:53:55;;;;;;;1.60;1.10;;;;;;;19.62;60.48;97439.75;6088528;23;20205;-91
2022/07/11 00:56:26;;;;;;;0.93;0.93;;;;;;;19.48;60.10;97383.19;6064805;23;20163;-92
2022/07/11 00:58:55;;;;;;;1.10;1.10;;;;;;;19.77;60.55;97470.88;6040954;23;20205;-90
2022/07/11 01:01:22;;;;;;;1.00;1.00;;;;;;;19.22;60.41;97334.66;6086761;23;20200;-90
2022/07/11 01:03:49;;;;;;;0.90;0.90;;;;;;;17.85;60.67;97149.72;6067630;23;20600;-92
2022/07/11 01:06:16;;;;;;;1.00;1.00;;;;;;;15.05;60.31;96625.47;6043255;23;20171;-90
2022/07/11 01:08:43;;;;;;;1.17;1.13;;;;;;;15.51;60.46;96735.34;6045030;23;20526;-92
2022/07/11 01:11:15;;;;;;;1.23;1.13;;;;;;;20.17;60.56;97539.50;6044845;23;20211;-92
2022/07/11 01:14:00;;;;;;;0.93;0.93;;;;;;;19.96;60.54;97486.88;6053646;23;20403;-93
2022/07/11 01:16:26;;;;;;;1.30;1.20;;;;;;;15.81;60.57;96730.66;6067997;23;20258;-90
2022/07/11 01:18:54;;;;;;;1.07;1.00;;;;;;;20.45;60.64;97618.75;6093876;23;20214;-91
2022/07/11 01:21:30;;;;;;;1.10;1.10;;;;;;;23.39;60.78;98043.22;6044684;23;20603;-90
2022/07/11 01:24:01;;;;;;;1.07;1.00;;;;;;;22.45;60.77;97881.28;6093977;23;20174;-90
2022/07/11 01:26:28;;;;;;;0.93;0.93;;;;;;;22.14;60.68;97820.53;6044688;23;20234;-90
2022/07/11 01:28:59;;;;;;;0.90;0.90;;;;;;;19.96;60.58;97473.28;6068296;23;20258;-91
2022/07/11 01:31:26;;;;;;;0.90;0.90;;;;;;;16.96;60.84;96929.53;6045562;23;20254;-91
2022/07/11 01:33:53;;;;;;;0.97;0.97;;;;;;;18.10;60.80;97128.63;6044425;23;20279;-91
2022/07/11 01:36:20;;;;;;;1.07;0.97;;;;;;;20.19;60.66;97487.69;6068242;23;20172;-91
2022/07/11 01:38:46;;;;;;;1.07;1.07;;;;;;;23.37;61.14;98036.31;6068170;23;20183;-90
2022/07/11 01:41:13;;;;;;;1.13;1.03;;;;;;;23.24;61.09;98006.84;6068335;23;20283;-90
2022/07/11 01:43:40;;;;;;;1.00;1.00;;;;;;;19.06;61.27;97281.41;6091862;23;20510;-90
2022/07/11 01:46:21;;;;;;;1.13;1.03;;;;;;;19.31;60.66;97340.97;6048149;23;20183;-91
2022/07/11 01:48:48;;;;;;;1.20;1.10;;;;;;;18.82;60.50;97278.00;6045157;23;20190;-91
2022/07/11 01:51:15;;;;;;;1.20;1.10;;;;;;;16.10;60.50;96765.53;6067571;23;20195;-90
2022/07/11 01:53:42;;;;;;;1.37;1.10;;;;;;;19.14;60.64;97310.56;6044028;23;20202;-90
2022/07/11 01:56:09;;;;;;;1.10;1.00;;;;;;;19.69;60.79;97401.78;6044945;23;20164;-90
2022/07/11 01:58:46;;;;;;;1.00;1.00;;;;;;;18.56;60.76;97174.41;6047824;23;20600;-91
2022/07/11 02:01:18;;;;;;;0.90;0.90;;;;;;;16.03;60.75;96782.22;6092790;23;20285;-90
2022/07/11 02:03:45;;;;;;;1.00;1.00;;;;;;;16.27;60.69;96792.41;6044594;23;20164;-91
2022/07/11 02:06:13;;;;;;;1.10;1.10;;;;;;;16.69;60.34;96866.75;6044146;23;20180;-90
2022/07/11 02:08:39;;;;;;;1.00;1.00;;;;;;;18.51;60.57;97197.16;6068092;23;20222;-91
2022/07/11 02:11:08;;;;;;;1.17;1.07;;;;;;;20.81;60.73;97564.69;6045061;23;20279;-91
2022/07/11 02:13:35;;;;;;;0.90;0.90;;;;;;;16.05;60.38;96795.78;6067995;23;20267;-90
2022/07/11 02:16:02;;;;;;;1.10;1.10;;;;;;;15.49;60.84;96693.06;6067811;23;20195;-91
2022/07/11 02:18:29;;;;;;;1.30;1.20;;;;;;;20.57;60.82;97515.38;6067877;23;20164;-90
2022/07/11 02:20:56;;;;;;;1.10;1.10;;;;;;;21.13;60.82;97614.31;6066617;23;20186;-91
2022/07/11 02:23:23;;;;;;;1.20;1.10;;;;;;;22.99;61.12;97935.13;6068326;23;20663;-91
2022/07/11 02:25:49;;;;;;;1.30;1.00;;;;;;;23.38;61.17;98007.25;6043891;23;20183;-91
2022/07/11 02:28:16;;;;;;;1.00;1.00;;;;;;;23.36;61.06;98003.81;6067703;23;20242;-93
2022/07/11 02:30:43;;;;;;;1.00;0.90;;;;;;;18.74;60.63;97216.63;6067063;23;20183;-90
2022/07/11 02:33:15;;;;;;;1.20;1.10;;;;;;;20.49;60.88;97510.84;6043037;23;20587;-91
2022/07/11 02:35:43;;;;;;;1.10;1.00;;;;;;;17.30;60.54;97046.81;6093715;23;20625;-88
2022/07/11 02:38:19;;;;;;;1.37;1.10;;;;;;;19.27;60.97;97328.06;6067631;23;20178;-91
2022/07/11 02:40:47;;;;;;;0.90;0.90;;;;;;;21.35;60.89;97689.19;6023247;23;20159;-91
2022/07/11 02:43:14;;;;;;;0.90;0.90;;;;;;;23.07;61.19;97950.72;6044538;23;20197;-91
2022/07/11 02:45:41;;;;;;;0.90;0.90;;;;;;;22.47;61.25;97854.88;6091310;23;20179;-89
2022/07/11 02:48:11;;;;;;;1.00;1.00;;;;;;;18.45;60.67;97224.03;6092781;23;20175;-91
2022/07/11 02:50:37;;;;;;;1.00;1.00;;;;;;;15.89;60.56;96704.78;6067919;23;20172;-92
2022/07/11 02:53:07;;;;;;;1.20;1.10;;;;;;;23.39;60.96;98004.75;6068398;23;20199;-90
2022/07/11 02:55:34;;;;;;;1.00;1.00;;;;;;;23.38;60.94;98003.00;6067426;23;20682;-91
2022/07/11 02:58:00;;;;;;;1.00;1.00;;;;;;;18.59;60.93;97199.97;6093214;23;20182;-90
2022/07/11 03:00:27;;;;;;;0.87;0.87;;;;;;;20.84;61.02;97594.59;6067906;23;20187;-90
2022/07/11 03:02:54;;;;;;;1.10;1.00;;;;;;;15.71;60.79;96675.34;6043164;23;20704;-90
2022/07/11 03:05:21;;;;;;;0.90;0.90;;;;;;;21.08;60.87;97662.72;6043229;23;20266;-90
2022/07/11 03:07:47;;;;;;;0.90;0.90;;;;;;;16.77;60.46;96890.72;6044463;23;20175;-90
2022/07/11 03:10:14;;;;;;;0.93;0.93;;;;;;;23.38;61.04;98010.69;6043525;23;20189;-91
2022/07/11 03:12:45;;;;;;;0.90;0.90;;;;;;;21.05;60.89;97662.63;6092840;23;20196;-91
2022/07/11 03:15:15;;;;;;;2.57;1.00;;;;;;;19.23;60.75;97338.91;6068881;23;20166;-90
2022/07/11 03:17:45;;;;;;;1.20;1.00;;;;;;;19.08;60.75;97323.09;6020816;23;20643;-90
2022/07/11 03:20:11;;;;;;;0.83;0.83;;;;;;;18.91;61.06;97311.44;6043614;23;20368;-91
2022/07/11 03:22:38;;;;;;;1.10;1.10;;;;;;;17.31;60.67;96969.81;6067451;23;20247;-91
2022/07/11 03:25:06;;;;;;;0.90;0.90;;;;;;;20.16;61.13;97463.78;6066944;23;20179;-91
2022/07/11 03:27:33;;;;;;;0.90;0.90;;;;;;;17.76;61.03;97064.63;6020248;23;20214;-91
2022/07/11 03:30:00;;;;;;;1.00;1.00;;;;;;;15.51;60.81;96643.38;6044331;23;20179;-91
2022/07/11 03:32:27;;;;;;;1.00;1.00;;;;;;;23.36;61.06;98007.22;6068272;23;20220;-90
2022/07/11 03:37:40;;;;;;;1.00;1.00;;;;;;;18.51;60.63;97176.81;6073117;23;20171;-90
2022/07/11 03:40:08;;;;;;;1.00;1.00;;;;;;;16.53;60.81;96885.59;6022168;23;20180;-90
2022/07/11 03:42:35;;;;;;;0.90;0.90;;;;;;;20.80;61.16;97562.09;6045909;23;20196;-90
2022/07/11 03:45:01;;;;;;;1.13;1.00;;;;;;;20.46;61.02;97505.63;6094502;23;20187;-90
2022/07/11 03:47:28;;;;;;;0.80;0.80;;;;;;;20.82;61.13;97569.00;6094914;23;20553;-90
2022/07/11 03:49:55;;;;;;;0.90;0.90;;;;;;;21.29;60.95;97660.84;6094909;23;20172;-90
2022/07/11 03:52:21;;;;;;;0.90;0.90;;;;;;;20.16;60.94;97459.53;6068922;23;20267;-93
2022/07/11 03:54:48;;;;;;;1.00;1.00;;;;;;;22.32;61.13;97833.06;6044913;23;20743;-91
2022/07/11 03:57:15;;;;;;;1.33;1.03;;;;;;;23.37;60.96;98008.09;6045184;23;20180;-90
2022/07/11 03:59:41;;;;;;;1.00;1.00;;;;;;;21.35;61.20;97709.63;6068491;23;20265;-91
2022/07/11 04:02:08;;;;;;;1.20;1.07;;;;;;;23.38;61.07;98030.34;6068545;23;20271;-90
2022/07/11 04:04:35;;;;;;;1.13;1.03;;;;;;;20.78;61.03;97579.06;6021596;23;20246;-91
2022/07/11 04:07:04;;;;;;;0.90;0.90;;;;;;;21.56;60.96;97701.81;6045215;23;20168;-90
2022/07/11 04:09:31;;;;;;;1.13;1.03;;;;;;;22.27;61.04;97834.59;6094041;23;20176;-90
2022/07/11 04:11:57;;;;;;;0.90;0.90;;;;;;;22.90;60.96;97937.41;6068346;23;20210;-91
2022/07/11 04:14:24;;;;;;;0.90;0.90;;;;;;;22.15;61.08;97811.19;6095545;23;20196;-91
2022/07/11 04:16:51;;;;;;;1.00;1.00;;;;;;;17.55;60.97;97059.63;6076956;23;20175;-92
2022/07/11 04:19:18;;;;;;;1.07;1.00;;;;;;;19.22;60.78;97314.25;6053990;23;20182;-93
2022/07/11 04:21:51;;;;;;;1.00;1.00;;;;;;;19.15;60.81;97308.06;6028090;23;20195;-91
2022/07/11 04:24:21;;;;;;;1.00;1.00;;;;;;;18.96;60.60;97305.72;6074825;23;20183;-92
2022/07/11 04:26:51;;;;;;;1.00;1.00;;;;;;;16.11;60.43;96818.81;6050287;23;20179;-91
2022/07/11 04:29:20;;;;;;;1.10;1.00;;;;;;;18.99;60.62;97300.72;6072735;23;20521;-93
2022/07/11 04:31:47;;;;;;;1.00;1.00;;;;;;;18.98;60.63;97357.53;6027790;23;20199;-93
2022/07/11 04:34:16;;;;;;;0.90;0.90;;;;;;;16.08;60.92;96790.84;6047679;23;20532;-92
2022/07/11 04:36:44;;;;;;;0.83;0.83;;;;;;;15.73;60.52;96763.28;6027442;23;20183;-92
2022/07/11 04:39:11;;;;;;;0.90;0.90;;;;;;;17.96;60.61;97084.91;6050335;23;20187;-92
2022/07/11 04:41:38;;;;;;;0.90;0.90;;;;;;;17.89;60.71;97069.38;6048826;23;20203;-92
2022/07/11 04:44:05;;;;;;;0.90;0.90;;;;;;;21.52;60.67;97693.16;6049332;23;20172;-93
2022/07/11 04:46:32;;;;;;;1.20;1.10;;;;;;;17.15;60.29;96953.94;6072515;23;20175;-93
2022/07/11 04:48:58;;;;;;;1.17;1.07;;;;;;;17.82;60.41;97102.97;6047552;23;20262;-93
2022/07/11 04:51:25;;;;;;;1.23;1.00;;;;;;;18.70;59.76;97260.63;6048626;23;20441;-93
2022/07/11 04:53:52;;;;;;;4.00;1.70;;;;;;;16.47;56.42;96859.13;6048713;23;20204;-93
2022/07/11 04:56:19;;;;;;;3.13;2.10;;;;;;;16.24;54.40;96784.69;6048994;23;20562;-92
2022/07/11 04:58:45;;;;;;;2.30;1.67;;;;;;;20.92;53.24;97585.47;6071134;23;20544;-92
2022/07/11 05:01:12;;;;;;;4.33;2.07;;;;;;;20.77;52.58;97554.31;6046674;23;20243;-93
2022/07/11 05:03:41;;;;;;;4.13;1.73;;;;;;;17.00;52.15;96979.63;6094708;23;20228;-91
2022/07/11 05:06:09;;;;;;;4.00;1.90;;;;;;;18.22;52.15;97131.59;6045448;23;20553;-93
2022/07/11 05:08:36;;;;;;;2.93;1.80;;;;;;;22.00;52.29;97819.25;6048327;23;20231;-92
2022/07/11 05:11:04;;;;;;;4.43;1.93;;;;;;;19.18;51.77;97335.31;6051707;23;20247;-93
2022/07/11 05:13:31;;;;;;;3.83;1.70;;;;;;;20.91;51.30;97622.94;6054654;23;20555;-94
2022/07/11 05:16:00;;;;;;;2.20;1.87;;;;;;;19.35;51.15;97381.03;6076650;23;20176;-92
2022/07/11 05:18:27;;;;;;;2.90;1.77;;;;;;;17.63;51.23;97057.38;6050527;23;20175;-92
2022/07/11 05:20:57;;;;;;;3.83;2.07;;;;;;;21.99;51.17;97796.19;6055218;23;20195;-93
2022/07/11 05:23:24;;;;;;;3.97;2.10;;;;;;;19.10;51.02;97296.84;6034763;23;20240;-93
2022/07/11 05:25:55;;;;;;;4.73;2.13;;;;;;;17.96;51.25;97133.22;6031811;23;20180;-93
2022/07/11 05:28:22;;;;;;;4.13;1.80;;;;;;;19.07;50.91;97304.38;6056131;23;20237;-93
2022/07/11 05:30:51;;;;;;;4.23;2.20;;;;;;;23.39;51.08;98043.22;6075382;23;20375;-92
2022/07/11 05:33:20;;;;;;;2.77;1.67;;;;;;;15.86;50.99;96745.22;6101353;23;20191;-93
2022/07/11 05:35:50;;;;;;;5.13;1.90;;;;;;;20.22;50.82;97500.56;6054552;23;20168;-93
2022/07/11 05:38:16;;;;;;;5.03;2.03;;;;;;;21.42;50.81;97714.16;6078103;23;20175;-92
2022/07/11 05:40:52;;;;;;;4.93;2.10;;;;;;;16.10;50.80;96839.03;6055830;23;20467;-92
2022/07/11 05:43:19;;;;;;;7.43;2.27;;;;;;;20.68;50.80;97587.22;6053668;23;20239;-95
2022/07/11 05:45:45;;;;;;;4.37;2.20;;;;;;;15.83;50.44;96749.28;6078515;23;20191;-93
2022/07/11 05:48:12;;;;;;;4.73;2.20;;;;;;;20.82;50.70;97611.56;6055593;23;20195;-92
2022/07/11 05:50:39;;;;;;;3.93;2.30;;;;;;;20.82;50.81;97611.56;6052948;23;20176;-93
2022/07/11 05:53:07;;;;;;;3.93;2.00;;;;;;;18.83;50.93;97265.31;6052837;23;20191;-92
2022/07/11 05:55:33;;;;;;;3.37;1.83;;;;;;;20.53;51.03;97561.19;6074538;23;20192;-93
2022/07/11 05:58:00;;;;;;;3.37;2.00;;;;;;;17.59;51.30;97139.38;6071019;23;20222;-92
2022/07/11 06:00:30;;;;;;;6.80;2.60;;;;;;;21.34;51.12;97701.91;6052250;23;20183;-92
2022/07/11 06:02:57;;;;;;;4.10;2.20;;;;;;;16.07;50.84;96875.28;6103757;23;20207;-92
2022/07/11 06:05:25;;;;;;;5.10;2.23;;;;;;;20.66;51.30;97610.16;6102660;23;20176;-94
2022/07/11 06:10:40;;;;;;;3.67;2.03;;;;;;;18.62;50.98;97272.19;6059793;23;20168;-92
2022/07/11 06:13:07;;;;;;;4.53;1.90;;;;;;;20.65;51.41;97566.69;6074017;23;20179;-93
2022/07/11 06:15:34;;;;;;;3.33;1.90;;;;;;;18.78;51.25;97246.50;6074532;23;20282;-94
2022/07/11 06:18:03;;;;;;;6.63;2.30;;;;;;;20.25;51.24;97507.47;6076905;23;20167;-93
2022/07/11 06:20:31;;;;;;;5.20;2.10;;;;;;;17.00;51.56;96939.03;6052473;23;20183;-92
2022/07/11 06:22:58;;;;;;;4.77;2.13;;;;;;;15.85;51.57;96740.09;6052108;23;20222;-92
2022/07/11 06:25:24;;;;;;;4.67;2.00;;;;;;;15.98;51.72;96757.47;6077993;23;20218;-92
2022/07/11 06:27:51;;;;;;;3.77;2.00;;;;;;;16.64;51.56;96874.16;6104976;23;20247;-93
2022/07/11 06:30:19;;;;;;;5.33;2.30;;;;;;;21.96;51.87;97839.59;6077636;23;20186;-93
2022/07/11 06:32:46;;;;;;;4.80;2.43;;;;;;;19.08;52.04;97300.16;6053477;23;20683;-93
2022/07/11 06:35:12;;;;;;;4.53;2.27;;;;;;;18.78;51.89;97254.13;6032699;23;20184;-93
2022/07/11 06:37:39;;;;;;;3.93;1.97;;;;;;;21.13;52.20;97676.53;6058781;23;20179;-92
2022/07/11 06:40:09;;;;;;;2.57;1.80;;;;;;;19.65;52.13;97412.69;6062042;23;20187;-94
2022/07/11 06:42:37;;;;;;;4.03;2.13;;;;;;;21.21;52.13;97704.88;6038214;23;20199;-92
2022/07/11 06:45:04;;;;;;;3.63;2.10;;;;;;;22.70;52.44;97938.47;6058005;23;20176;-93
2022/07/11 06:47:32;;;;;;;4.27;2.00;;;;;;;22.09;52.03;97839.16;6059371;23;20186;-92
2022/07/11 06:49:59;;;;;;;4.80;2.00;;;;;;;21.83;52.61;97787.13;6056058;23;20164;-92
2022/07/11 06:52:26;;;;;;;4.77;1.93;;;;;;;20.60;52.63;97606.53;6054670;23;20195;-92
2022/07/11 06:54:52;;;;;;;4.93;1.80;;;;;;;21.88;52.80;97780.50;6029832;23;20194;-91
2022/07/11 06:57:19;;;;;;;4.03;2.10;;;;;;;23.05;52.79;97980.56;6048487;23;20184;-92
2022/07/11 06:59:45;;;;;;;6.47;2.10;;;;;;;22.82;53.08;97959.34;6053628;23;20691;-91
2022/07/11 07:36:35;;;;;;;3.70;2.00;;;;;;;22.04;55.10;97821.09;6102870;23;20191;-93
2022/07/11 08:30:30;;;;;;;2.07;1.70;;;;;;;22.20;55.60;97814.78;6115580;23;20199;-91
2022/07/11 08:33:01;;;;;;;2.13;1.60;;;;;;;20.82;55.38;97586.00;6073987;23;20196;-92
2022/07/11 08:35:43;;;;;;;1.60;1.50;;;;;;;20.72;55.86;97566.94;6076861;23;20191;-93
2022/07/11 08:38:15;;;;;;;1.60;1.47;;;;;;;21.42;55.71;97695.38;6097189;23;20175;-90
2022/07/11 08:40:44;;;;;;;2.47;1.60;;;;;;;23.48;56.17;98024.69;6047648;23;20221;-92
2022/07/11 08:43:16;;;;;;;2.53;1.63;;;;;;;23.39;56.02;98004.75;6070615;23;20197;-91
2022/07/11 08:45:44;;;;;;;1.43;1.33;;;;;;;21.59;55.78;97720.66;6070046;23;20179;-88
2022/07/11 08:48:11;;;;;;;11.30;1.60;;;;;;;21.68;55.84;97733.72;6070434;23;20203;-94
2022/07/11 08:50:39;;;;;;;1.50;1.40;;;;;;;21.18;55.96;97653.69;6068792;23;20435;-92
2022/07/11 08:53:06;;;;;;;2.37;1.60;;;;;;;21.23;55.83;97647.03;6069913;23;20214;-90
2022/07/11 08:55:40;;;;;;;1.47;1.30;;;;;;;21.47;56.08;97692.13;6072138;23;20206;-92
2022/07/11 08:58:08;;;;;;;5.20;1.50;;;;;;;21.94;56.27;97778.13;6069174;23;20211;-92
2022/07/11 09:00:36;;;;;;;1.50;1.40;;;;;;;21.28;56.03;97645.47;6071177;23;20231;-93
2022/07/11 09:03:03;;;;;;;1.70;1.47;;;;;;;21.20;56.06;97647.78;6070018;23;20321;-92
2022/07/11 09:05:34;;;;;;;1.53;1.40;;;;;;;23.56;56.30;98036.03;6068550;23;20215;-92
2022/07/11 09:08:01;;;;;;;1.70;1.60;;;;;;;21.19;56.29;97646.06;6068238;23;20179;-92
2022/07/11 09:10:28;;;;;;;1.80;1.47;;;;;;;21.39;56.37;97677.38;6068804;23;20176;-92
2022/07/11 09:13:07;;;;;;;1.67;1.47;;;;;;;21.91;56.03;97769.47;6070226;23;20219;-92
2022/07/11 09:15:45;;;;;;;2.53;1.57;;;;;;;21.44;56.07;97663.06;6067961;23;20190;-92
2022/07/11 09:18:34;;;;;;;1.43;1.27;;;;;;;22.94;56.04;97936.66;6070503;23;20232;-92
2022/07/11 09:26:48;;;;;;;4.47;1.67;;;;;;;22.12;56.17;97790.63;6100378;23;20168;-93
2022/07/11 09:29:25;;;;;;;1.43;1.33;;;;;;;20.97;56.43;97602.75;6048547;23;20236;-94
2022/07/11 09:31:57;;;;;;;1.50;1.40;;;;;;;21.00;56.24;97605.41;6074435;23;20180;-92
2022/07/11 09:34:27;;;;;;;2.27;1.53;;;;;;;20.87;56.21;97594.69;6051476;23;20202;-92
2022/07/11 09:36:58;;;;;;;1.70;1.40;;;;;;;21.18;56.37;97646.88;6052421;23;20199;-92
2022/07/11 09:39:36;;;;;;;2.37;1.70;;;;;;;22.09;56.53;97786.28;6099315;23;20166;-93
2022/07/11 09:42:14;;;;;;;2.23;1.33;;;;;;;20.71;56.62;97555.00;6098640;23;20184;-93
2022/07/11 09:44:46;;;;;;;1.97;1.40;;;;;;;20.84;56.55;97595.44;6076401;23;20174;-93
2022/07/11 09:47:16;;;;;;;1.87;1.60;;;;;;;20.94;56.82;97605.16;6049969;23;20159;-93
2022/07/11 09:49:46;;;;;;;1.70;1.37;;;;;;;20.91;56.61;97606.75;6051057;23;20170;-93
2022/07/11 09:52:15;;;;;;;1.40;1.30;;;;;;;20.78;56.90;97577.38;6074545;23;20180;-91
2022/07/11 09:54:54;;;;;;;1.50;1.40;;;;;;;21.18;56.66;97658.78;6072205;23;20219;-93
2022/07/11 09:57:37;;;;;;;1.40;1.30;;;;;;;21.02;56.99;97639.50;6074029;23;20203;-93
2022/07/11 10:00:09;;;;;;;2.10;1.60;;;;;;;21.46;56.77;97703.19;6050505;23;20159;-93
2022/07/11 10:02:37;;;;;;;1.63;1.53;;;;;;;22.03;56.99;97793.75;6049096;23;20227;-94
2022/07/11 10:05:04;;;;;;;1.30;1.20;;;;;;;21.55;56.60;97715.38;6072520;23;20159;-92
2022/07/11 10:07:32;;;;;;;1.57;1.47;;;;;;;22.05;56.68;97806.63;6048199;23;20168;-89
2022/07/11 10:09:59;;;;;;;1.43;1.30;;;;;;;22.08;56.68;97793.91;6068461;23;20187;-93
2022/07/11 10:12:29;;;;;;;1.40;1.30;;;;;;;22.11;56.74;97810.22;6071492;23;20223;-93
2022/07/11 10:15:01;;;;;;;2.13;1.30;;;;;;;21.35;56.54;97675.56;6072335;23;20206;-90
2022/07/11 10:18:09;;;;;;;1.50;1.40;;;;;;;21.33;56.66;97702.75;6051201;23;20147;-92
2022/07/11 10:20:49;;;;;;;2.07;1.57;;;;;;;21.92;56.30;97771.19;5959220;23;20182;-90
2022/07/11 10:23:54;;;;;;;2.17;1.50;;;;;;;20.77;56.55;97588.41;6090858;23;20215;-90
2022/07/11 10:26:30;;;;;;;1.80;1.50;;;;;;;21.51;56.38;97717.00;6075667;23;20168;-91
2022/07/11 10:29:20;;;;;;;3.33;1.27;;;;;;;20.87;56.53;97613.44;6050266;23;20167;-92
2022/07/11 10:32:16;;;;;;;3.03;1.20;;;;;;;22.93;56.78;97941.75;6118626;23;20516;-93
2022/07/11 10:35:11;;;;;;;3.43;1.60;;;;;;;20.73;56.78;97565.28;6093194;23;20192;-92
2022/07/11 10:37:48;;;;;;;2.40;1.40;;;;;;;22.44;56.72;97859.06;6050007;23;20346;-90
2022/07/11 10:40:45;;;;;;;2.13;1.40;;;;;;;21.12;56.87;97643.25;6049557;23;20184;-88
2022/07/11 10:43:40;;;;;;;6.47;1.67;;;;;;;23.51;57.04;98065.81;6087184;23;20219;-90
2022/07/11 10:46:11;;;;;;;1.50;1.40;;;;;;;21.10;56.89;97630.44;6048612;23;20232;-91
2022/07/11 10:54:47;;;;;;;1.70;1.53;;;;;;;23.36;57.02;98029.44;6121909;23;20198;-93
2022/07/11 10:57:35;;;;;;;1.57;1.47;;;;;;;23.52;56.97;98059.84;6089349;23;20464;-92
2022/07/11 11:00:09;;;;;;;1.60;1.23;;;;;;;21.08;57.20;97643.97;6097167;23;20183;-91
2022/07/11 11:05:14;;;;;;;1.60;1.50;;;;;;;21.23;57.08;97670.03;6118015;23;20187;-91
2022/07/11 11:07:46;;;;;;;1.40;1.30;;;;;;;21.02;56.99;97639.50;6066586;23;20163;-92
2022/07/11 11:10:17;;;;;;;1.60;1.50;;;;;;;23.51;57.24;98054.69;6045581;23;20164;-92
2022/07/11 11:13:06;;;;;;;1.50;1.40;;;;;;;23.49;57.11;98046.94;6074168;23;20181;-91
2022/07/11 11:15:44;;;;;;;1.57;1.30;;;;;;;22.31;57.26;97870.59;6065358;23;20184;-89
2022/07/11 11:18:24;;;;;;;1.73;1.63;;;;;;;23.49;57.21;98043.50;6042224;23;20204;-94
2022/07/11 11:20:59;;;;;;;2.13;1.47;;;;;;;23.48;57.40;98047.78;6066491;23;20166;-92
2022/07/11 11:23:40;;;;;;;1.33;1.23;;;;;;;23.33;57.34;98039.63;6066946;23;20188;-92
2022/07/11 11:26:20;;;;;;;1.40;1.30;;;;;;;20.71;57.11;97584.78;6025486;23;20188;-88
2022/07/11 11:28:57;;;;;;;1.63;1.53;;;;;;;23.48;57.28;98044.31;6042979;23;20160;-91
2022/07/11 11:31:24;;;;;;;1.60;1.30;;;;;;;21.73;57.46;97749.22;6031795;23;20196;-88
2022/07/11 11:33:51;;;;;;;1.30;1.20;;;;;;;23.31;57.35;98023.31;6066756;23;20180;-89
2022/07/11 11:36:19;;;;;;;1.40;1.30;;;;;;;22.98;57.17;97968.41;6067031;23;20880;-89
2022/07/11 11:38:46;;;;;;;1.33;1.20;;;;;;;23.49;57.50;98051.19;6066520;23;20184;-88
2022/07/11 11:41:14;;;;;;;1.30;1.20;;;;;;;22.94;57.36;97967.44;6040802;23;20176;-89
2022/07/11 11:43:44;;;;;;;1.50;1.40;;;;;;;23.11;57.44;97988.44;6040792;23;20188;-88
2022/07/11 11:46:12;;;;;;;1.53;1.30;;;;;;;23.31;57.48;98016.50;6041315;23;20296;-88
2022/07/11 11:48:39;;;;;;;1.20;1.10;;;;;;;23.39;57.28;98029.53;6039939;23;20811;-88
2022/07/11 11:51:16;;;;;;;1.30;1.20;;;;;;;23.32;57.44;98014.78;6065937;23;20191;-88
2022/07/11 11:53:56;;;;;;;1.90;1.30;;;;;;;22.89;57.63;97948.47;6066228;23;20175;-89
2022/07/11 11:56:27;;;;;;;1.23;1.20;;;;;;;23.50;57.43;98046.09;6067397;23;20426;-89
2022/07/11 11:59:00;;;;;;;1.20;1.20;;;;;;;22.28;57.49;97834.66;6042014;23;20227;-89
2022/07/11 12:01:37;;;;;;;1.40;1.30;;;;;;;23.21;57.58;97998.19;6044047;23;20200;-88
2022/07/11 12:04:05;;;;;;;1.40;1.30;;;;;;;22.84;57.37;97928.66;6043175;23;20274;-89
2022/07/11 12:06:36;;;;;;;1.50;1.40;;;;;;;22.62;57.38;97877.59;6042165;23;20168;-88
2022/07/11 12:09:19;;;;;;;1.53;1.20;;;;;;;23.50;57.65;98025.56;6067032;23;20184;-89
2022/07/11 12:12:43;;;;;;;1.30;1.20;;;;;;;23.17;57.54;97966.44;6067838;23;20234;-89
2022/07/11 12:14:35;;;;;;;1.40;1.30;;;;;;;22.90;57.65;97919.47;6066762;23;20200;-89
2022/07/11 12:17:02;;;;;;;1.20;1.10;;;;;;;22.95;57.59;97922.16;6067344;23;20185;-89
2022/07/11 12:19:35;;;;;;;2.00;1.40;;;;;;;23.51;57.48;98014.50;6042378;23;20168;-89
2022/07/11 12:22:03;;;;;;;1.23;1.13;;;;;;;23.26;57.69;97981.25;6042315;23;20204;-90
2022/07/11 12:24:30;;;;;;;1.30;1.20;;;;;;;23.47;57.61;98004.13;6042953;23;20212;-89
2022/07/11 12:26:57;;;;;;;1.40;1.30;;;;;;;22.90;57.55;97916.03;6067696;23;20208;-88
2022/07/11 12:29:24;;;;;;;2.23;1.40;;;;;;;23.35;57.50;97995.22;6066700;23;20513;-89
2022/07/11 12:31:59;;;;;;;1.40;1.30;;;;;;;23.38;57.60;97998.72;6066812;23;20546;-89
2022/07/11 12:34:42;;;;;;;1.50;1.40;;;;;;;22.93;57.70;97927.25;6067525;23;20168;-90
2022/07/11 12:37:09;;;;;;;1.30;1.20;;;;;;;23.02;57.67;97935.22;6067476;23;20192;-89
2022/07/11 12:39:45;;;;;;;1.30;1.20;;;;;;;23.37;57.63;97997.84;6068319;23;20169;-89
2022/07/11 12:42:35;;;;;;;1.40;1.30;;;;;;;23.05;57.74;97947.25;6066907;23;20234;-89
2022/07/11 12:45:08;;;;;;;1.37;1.20;;;;;;;23.50;57.73;98019.59;6042460;23;20165;-88
2022/07/11 12:47:39;;;;;;;1.40;1.30;;;;;;;23.18;57.68;97960.47;6066978;23;20228;-89
2022/07/11 12:50:15;;;;;;;1.40;1.30;;;;;;;22.78;57.59;97882.34;6067301;23;20673;-89
2022/07/11 12:52:45;;;;;;;1.40;1.30;;;;;;;23.03;57.82;97936.94;6066720;23;20260;-90
2022/07/11 12:55:29;;;;;;;1.83;1.10;;;;;;;22.95;57.56;97927.28;6042233;23;20192;-89
2022/07/11 12:58:13;;;;;;;1.67;1.57;;;;;;;23.49;57.80;98015.25;6066105;23;20207;-89
2022/07/11 13:00:59;;;;;;;1.40;1.30;;;;;;;23.31;57.74;97982.25;6067330;23;20216;-89
2022/07/11 13:03:29;;;;;;;1.30;1.20;;;;;;;22.76;57.73;97889.97;6043574;23;20212;-88
2022/07/11 13:05:58;;;;;;;1.10;1.10;;;;;;;23.32;57.82;97986.56;6066727;23;20255;-88
2022/07/11 13:11:19;;;;;;;1.20;1.10;;;;;;;22.99;57.82;97929.13;6067946;23;20278;-88
2022/07/11 13:13:47;;;;;;;1.20;1.10;;;;;;;23.00;57.82;97925.72;6041395;23;20194;-87
2022/07/11 13:16:14;;;;;;;1.20;1.13;;;;;;;22.87;57.93;97900.56;6065686;23;20260;-88
2022/07/11 13:18:41;;;;;;;1.40;1.30;;;;;;;22.84;57.87;97898.78;6040353;23;20188;-88
2022/07/11 13:21:08;;;;;;;1.20;1.20;;;;;;;22.80;57.89;97888.38;6041491;23;20219;-88
2022/07/11 13:23:37;;;;;;;1.33;1.23;;;;;;;23.01;57.71;97924.91;6066688;23;20184;-88
2022/07/11 13:26:05;;;;;;;1.23;1.23;;;;;;;22.98;58.01;97922.25;6041105;23;20648;-88
2022/07/11 13:28:33;;;;;;;1.20;1.10;;;;;;;23.25;57.91;97962.44;6021661;23;20235;-90
2022/07/11 13:31:00;;;;;;;1.30;1.20;;;;;;;23.07;57.71;97936.19;6042380;23;20189;-92
2022/07/11 13:33:41;;;;;;;1.23;1.20;;;;;;;22.79;57.93;97897.75;6068837;23;20149;-93
2022/07/11 13:36:08;;;;;;;1.33;1.23;;;;;;;21.95;57.95;97736.34;6042923;23;20222;-93
2022/07/11 13:38:35;;;;;;;1.53;1.20;;;;;;;22.08;57.30;97771.72;6066342;23;20186;-93